Time;durP1;ratioP1;P1;durP2;ratioP2;P2;SDS_P1;SDS_P2;PMS_P1;PMS_P2;Temp;Humidity;BMP_temperature;BMP_pressure;BME280_temperature;BME280_humidity;BME280_pressure;Samples;Min_cycle;Max_cycle;Signal;HPM_P1;HPM_P2
2022/10/17 00:02:25;;;;;;;5.75;3.53;;;16.10;99.90;;;;;;5014943;28;20026;-87
2022/10/17 00:04:51;;;;;;;7.68;3.63;;;16.20;99.90;;;;;;5007813;28;20061;-88
2022/10/17 00:07:16;;;;;;;8.98;4.13;;;16.10;99.90;;;;;;5010769;28;20045;-89
2022/10/17 00:09:42;;;;;;;9.77;4.18;;;16.10;99.90;;;;;;5010496;28;20559;-87
2022/10/17 00:12:08;;;;;;;11.40;4.20;;;;;;;;;;5015459;28;20053;-88
2022/10/17 00:14:35;;;;;;;8.15;4.80;;;16.00;99.90;;;;;;5016787;28;20038;-88
2022/10/17 00:17:00;;;;;;;9.10;4.35;;;17.30;99.90;;;;;;5030655;28;20027;-86
2022/10/17 00:19:26;;;;;;;10.48;5.07;;;;;;;;;;5011136;28;20045;-85
2022/10/17 00:21:52;;;;;;;10.00;4.63;;;15.80;99.90;;;;;;5013530;28;20117;-86
2022/10/17 00:24:18;;;;;;;10.30;5.15;;;;;;;;;;5012822;28;20480;-86
2022/10/17 00:26:44;;;;;;;10.43;4.90;;;;;;;;;;5028492;28;20077;-85
2022/10/17 00:29:11;;;;;;;10.38;5.22;;;15.60;99.90;;;;;;5013849;28;20049;-87
2022/10/17 00:31:36;;;;;;;7.55;4.10;;;15.50;99.90;;;;;;4989078;28;20038;-87
2022/10/17 00:34:02;;;;;;;12.70;4.70;;;15.50;99.90;;;;;;5015707;28;20076;-87
2022/10/17 00:36:28;;;;;;;8.13;4.70;;;15.50;99.90;;;;;;5010926;28;20117;-86
2022/10/17 00:38:57;;;;;;;8.85;5.57;;;15.30;99.90;;;;;;5028414;28;20030;-84
2022/10/17 00:41:28;;;;;;;9.65;4.88;;;15.30;99.90;;;;;;5011601;28;20030;-86
2022/10/17 00:44:01;;;;;;;9.55;5.43;;;15.30;99.90;;;;;;5013411;28;20044;-85
2022/10/17 00:46:30;;;;;;;8.35;5.20;;;15.40;99.90;;;;;;5012300;28;20041;-86
2022/10/17 00:48:57;;;;;;;10.85;5.07;;;15.20;99.90;;;;;;5011711;28;20030;-89
2022/10/17 00:51:48;;;;;;;8.23;4.85;;;15.20;99.90;;;;;;5012236;28;20534;-87
2022/10/17 00:54:17;;;;;;;11.15;5.20;;;15.10;99.90;;;;;;5008612;28;20116;-84
2022/10/17 00:56:43;;;;;;;9.23;4.55;;;;;;;;;;5010838;28;20085;-83
2022/10/17 00:59:12;;;;;;;9.50;4.43;;;15.20;99.90;;;;;;5012784;28;20018;-88
2022/10/17 01:01:40;;;;;;;9.55;4.47;;;15.20;99.90;;;;;;5004373;28;20033;-85
2022/10/17 01:04:06;;;;;;;7.05;3.85;;;;;;;;;;5012722;28;20030;-86
2022/10/17 01:06:32;;;;;;;11.73;4.00;;;;;;;;;;5013665;28;20037;-81
2022/10/17 01:08:58;;;;;;;6.47;3.72;;;;;;;;;;5013560;28;20033;-86
2022/10/17 01:11:42;;;;;;;7.55;3.97;;;15.30;99.90;;;;;;5014490;28;20057;-88
2022/10/17 01:14:14;;;;;;;6.55;4.30;;;15.30;99.90;;;;;;5024465;28;20034;-84
2022/10/17 01:16:51;;;;;;;8.75;3.75;;;15.40;99.90;;;;;;5013385;28;20339;-87
2022/10/17 01:19:37;;;;;;;7.50;4.07;;;15.40;99.90;;;;;;5006937;28;20022;-88
2022/10/17 01:22:03;;;;;;;7.70;4.30;;;;;;;;;;5021202;28;20487;-86
2022/10/17 01:24:47;;;;;;;7.85;3.67;;;15.40;99.90;;;;;;5011940;28;20025;-85
2022/10/17 01:27:49;;;;;;;6.60;3.83;;;15.40;99.90;;;;;;5011623;28;20030;-87
2022/10/17 01:30:27;;;;;;;7.72;3.88;;;15.40;99.90;;;;;;5008319;28;20025;-85
2022/10/17 01:33:18;;;;;;;12.85;4.30;;;15.40;99.90;;;;;;5008814;28;20034;-87
2022/10/17 01:35:55;;;;;;;6.60;3.72;;;15.40;99.90;;;;;;5012789;28;20030;-85
2022/10/17 01:38:25;;;;;;;7.40;3.42;;;15.50;99.90;;;;;;5017576;28;20044;-86
2022/10/17 01:41:16;;;;;;;4.82;2.88;;;15.60;99.90;;;;;;5008526;28;20184;-86
2022/10/17 01:44:05;;;;;;;8.77;3.78;;;15.50;99.90;;;;;;5014635;28;20026;-86
2022/10/17 01:46:40;;;;;;;10.18;4.65;;;15.60;99.90;;;;;;4978010;28;20046;-88
2022/10/17 01:49:09;;;;;;;7.35;3.50;;;15.60;99.90;;;;;;5011196;28;20029;-86
2022/10/17 01:52:01;;;;;;;6.75;2.97;;;15.70;99.90;;;;;;5010559;28;20022;-87
2022/10/17 01:54:33;;;;;;;6.47;3.78;;;15.60;99.90;;;;;;5013119;28;20091;-86
2022/10/17 01:57:03;;;;;;;8.60;4.13;;;15.50;99.90;;;;;;5008866;28;20018;-86
2022/10/17 01:59:39;;;;;;;10.77;4.22;;;15.60;99.90;;;;;;5008718;28;20117;-88
2022/10/17 02:02:06;;;;;;;6.18;3.70;;;15.50;99.90;;;;;;5015390;28;20029;-85
2022/10/17 02:04:32;;;;;;;9.93;3.58;;;15.60;99.90;;;;;;5014030;28;21227;-84
2022/10/17 02:07:09;;;;;;;7.90;3.50;;;15.50;99.90;;;;;;5010391;28;20160;-86
2022/10/17 02:09:35;;;;;;;11.88;3.58;;;15.60;99.90;;;;;;5010698;28;20038;-81
2022/10/17 02:12:31;;;;;;;10.15;4.38;;;15.70;99.90;;;;;;5011710;28;20057;-85
2022/10/17 02:15:17;;;;;;;6.13;3.70;;;15.60;99.90;;;;;;5004622;28;20088;-86
2022/10/17 02:18:08;;;;;;;7.45;4.00;;;15.60;99.90;;;;;;5009952;28;20034;-87
2022/10/17 02:20:50;;;;;;;6.07;3.40;;;15.70;99.90;;;;;;5006877;28;20072;-86
2022/10/17 02:23:25;;;;;;;7.65;3.45;;;15.60;99.90;;;;;;5007555;28;20034;-88
2022/10/17 02:26:12;;;;;;;7.63;3.60;;;15.60;99.90;;;;;;5009797;28;20017;-87
2022/10/17 02:28:59;;;;;;;7.35;4.07;;;15.70;99.90;;;;;;5007189;28;20451;-87
2022/10/17 02:31:33;;;;;;;12.98;4.13;;;15.70;99.90;;;;;;5002805;28;20017;-87
2022/10/17 02:34:03;;;;;;;5.72;3.50;;;15.60;99.90;;;;;;4990840;28;20034;-87
2022/10/17 02:36:34;;;;;;;5.03;3.60;;;17.10;99.90;;;;;;5007531;28;20026;-88
2022/10/17 02:39:01;;;;;;;5.95;4.00;;;15.80;99.90;;;;;;5008686;28;20034;-87
2022/10/17 02:41:30;;;;;;;6.97;4.40;;;15.60;99.90;;;;;;5007064;28;20037;-84
2022/10/17 02:43:56;;;;;;;6.22;3.72;;;15.80;99.90;;;;;;5004688;28;20037;-87
2022/10/17 02:46:25;;;;;;;10.10;3.80;;;15.50;99.90;;;;;;5020645;28;20042;-88
2022/10/17 02:48:57;;;;;;;7.77;3.97;;;15.50;99.90;;;;;;5009186;28;20038;-86
2022/10/17 02:51:29;;;;;;;4.85;3.30;;;15.50;99.90;;;;;;5008515;28;20034;-87
2022/10/17 02:54:14;;;;;;;6.75;3.85;;;15.50;99.90;;;;;;5002940;28;20099;-87
2022/10/17 02:56:53;;;;;;;7.38;4.18;;;15.50;99.90;;;;;;5013193;28;20115;-85
2022/10/17 02:59:21;;;;;;;6.00;3.80;;;15.50;99.90;;;;;;5006436;28;20035;-86
2022/10/17 03:01:50;;;;;;;12.57;4.32;;;15.40;99.90;;;;;;5004050;28;20120;-84
2022/10/17 03:04:17;;;;;;;7.90;3.78;;;15.50;99.90;;;;;;5021140;28;20030;-87
2022/10/17 03:06:45;;;;;;;9.15;4.13;;;15.50;99.90;;;;;;5003784;28;20030;-87
2022/10/17 03:09:10;;;;;;;9.80;4.30;;;15.40;99.90;;;;;;5023176;28;20403;-86
2022/10/17 03:11:36;;;;;;;8.73;4.22;;;;;;;;;;5004777;28;20040;-85
2022/10/17 03:14:02;;;;;;;7.97;4.00;;;15.50;99.90;;;;;;5004328;28;20029;-87
2022/10/17 03:16:28;;;;;;;10.55;4.72;;;15.50;99.90;;;;;;5005123;28;20022;-86
2022/10/17 03:18:54;;;;;;;8.10;3.88;;;16.10;99.90;;;;;;5005616;28;20033;-85
2022/10/17 03:21:20;;;;;;;12.93;3.95;;;15.40;99.90;;;;;;5000271;28;20033;-88
2022/10/17 03:23:46;;;;;;;8.30;4.22;;;15.40;99.90;;;;;;5000780;28;20527;-88
2022/10/17 03:26:11;;;;;;;8.52;4.40;;;15.40;99.90;;;;;;5007994;28;20064;-87
2022/10/17 03:28:37;;;;;;;6.30;3.95;;;15.40;99.90;;;;;;5011850;28;20450;-85
2022/10/17 03:31:13;;;;;;;6.97;4.00;;;15.40;99.90;;;;;;5018249;28;20081;-87
2022/10/17 03:33:38;;;;;;;8.02;3.92;;;15.50;99.90;;;;;;5024578;28;20034;-86
2022/10/17 03:36:06;;;;;;;8.13;4.57;;;15.60;99.90;;;;;;5004553;28;20038;-86
2022/10/17 03:38:32;;;;;;;7.45;3.70;;;15.50;99.90;;;;;;5009480;28;20034;-85
2022/10/17 03:40:57;;;;;;;6.35;3.92;;;16.50;99.90;;;;;;5011910;28;20080;-87
2022/10/17 03:43:23;;;;;;;8.88;3.70;;;;;;;;;;5011622;28;20435;-87
2022/10/17 03:45:49;;;;;;;6.88;4.38;;;;;;;;;;5008738;28;20061;-86
2022/10/17 03:48:15;;;;;;;7.25;4.78;;;15.50;99.90;;;;;;5011065;28;20022;-86
2022/10/17 03:50:40;;;;;;;7.28;4.38;;;15.50;99.90;;;;;;5021369;28;20034;-88
2022/10/17 03:53:06;;;;;;;8.43;4.53;;;15.40;99.90;;;;;;5010068;28;20041;-87
2022/10/17 03:55:32;;;;;;;7.07;4.05;;;15.50;99.90;;;;;;5011799;28;20041;-87
2022/10/17 03:57:57;;;;;;;8.57;4.20;;;15.50;99.90;;;;;;5010104;28;20026;-87
2022/10/17 04:00:23;;;;;;;9.00;4.72;;;16.30;99.90;;;;;;5008617;28;20032;-86
2022/10/17 04:02:48;;;;;;;10.35;4.55;;;15.50;99.90;;;;;;5009651;28;20037;-87
2022/10/17 04:05:14;;;;;;;8.55;4.05;;;15.90;99.90;;;;;;5003872;28;20034;-87
2022/10/17 04:07:40;;;;;;;9.60;3.88;;;15.40;99.90;;;;;;5004230;28;20099;-84
2022/10/17 04:10:06;;;;;;;7.25;3.83;;;15.40;99.90;;;;;;5000308;28;20167;-86
2022/10/17 04:12:31;;;;;;;6.65;3.80;;;15.50;99.90;;;;;;4998544;28;20034;-88
2022/10/17 04:14:57;;;;;;;6.28;3.88;;;15.50;99.90;;;;;;5009124;28;20030;-87
2022/10/17 04:17:23;;;;;;;6.22;3.70;;;15.50;99.90;;;;;;5007354;28;20038;-89
2022/10/17 04:19:48;;;;;;;6.75;3.88;;;15.60;99.90;;;;;;5010250;28;20440;-86
2022/10/17 04:22:14;;;;;;;7.40;4.10;;;15.50;99.90;;;;;;5007376;28;20037;-86
2022/10/17 04:24:40;;;;;;;6.10;4.00;;;15.60;99.90;;;;;;5009814;28;20799;-86
2022/10/17 04:27:05;;;;;;;8.85;4.18;;;16.80;99.90;;;;;;5008456;28;20034;-86
2022/10/17 04:29:31;;;;;;;9.10;4.30;;;15.60;99.90;;;;;;5027340;28;20040;-86
2022/10/17 04:31:57;;;;;;;10.00;4.30;;;15.60;99.90;;;;;;5010703;28;20712;-85
2022/10/17 04:34:22;;;;;;;9.23;4.07;;;15.60;99.90;;;;;;5012600;28;20476;-86
2022/10/17 04:36:48;;;;;;;10.25;5.60;;;16.90;99.90;;;;;;5011064;28;20028;-87
2022/10/17 04:39:13;;;;;;;8.63;5.40;;;15.50;99.90;;;;;;5009224;28;20068;-86
2022/10/17 04:41:39;;;;;;;9.57;4.93;;;15.60;99.90;;;;;;5009745;28;20056;-85
2022/10/17 04:44:05;;;;;;;7.05;4.40;;;15.30;99.90;;;;;;5019985;28;20034;-86
2022/10/17 04:46:33;;;;;;;10.48;5.30;;;15.20;99.90;;;;;;5004460;28;20033;-85
2022/10/17 04:48:59;;;;;;;8.45;4.78;;;15.20;99.90;;;;;;5015159;28;20038;-87
2022/10/17 04:51:24;;;;;;;8.48;4.63;;;15.80;99.90;;;;;;4993323;28;20553;-86
2022/10/17 04:53:50;;;;;;;9.30;5.35;;;15.10;99.90;;;;;;5012491;28;20025;-86
2022/10/17 04:56:18;;;;;;;11.57;5.10;;;16.10;99.90;;;;;;5008369;28;20026;-86
2022/10/17 04:58:44;;;;;;;8.05;4.72;;;15.10;99.90;;;;;;5010837;28;20172;-87
2022/10/17 05:01:14;;;;;;;7.20;4.90;;;15.10;99.90;;;;;;4999205;28;20557;-86
2022/10/17 05:03:39;;;;;;;10.88;5.30;;;15.00;99.90;;;;;;5008072;28;20034;-86
2022/10/17 05:06:11;;;;;;;10.63;5.28;;;15.10;99.90;;;;;;5014949;28;20041;-87
2022/10/17 05:08:37;;;;;;;7.75;4.88;;;14.90;99.90;;;;;;5009748;28;20034;-85
2022/10/17 05:11:04;;;;;;;7.63;5.45;;;15.00;99.90;;;;;;5008809;28;20030;-85
2022/10/17 05:13:30;;;;;;;10.27;5.47;;;14.90;99.90;;;;;;5013270;28;20054;-85
2022/10/17 05:16:00;;;;;;;8.85;4.85;;;14.80;99.90;;;;;;5010319;28;20026;-87
2022/10/17 05:18:26;;;;;;;9.37;5.60;;;14.80;99.90;;;;;;4999537;28;20025;-88
2022/10/17 05:20:52;;;;;;;8.70;5.40;;;14.80;99.90;;;;;;5005495;28;20277;-89
2022/10/17 05:23:18;;;;;;;9.52;5.18;;;15.80;99.90;;;;;;5002755;28;20080;-85
2022/10/17 05:25:44;;;;;;;15.95;8.07;;;;;;;;;;5001886;28;20039;-86
2022/10/17 05:28:09;;;;;;;9.63;6.00;;;14.70;99.90;;;;;;5002728;28;20069;-86
2022/10/17 05:30:35;;;;;;;12.73;5.40;;;;;;;;;;5026127;28;20040;-88
2022/10/17 05:33:02;;;;;;;12.15;5.50;;;;;;;;;;5009388;28;20034;-86
2022/10/17 05:35:27;;;;;;;10.13;5.45;;;15.60;99.90;;;;;;5004941;28;20021;-88
2022/10/17 05:37:53;;;;;;;10.93;5.30;;;14.60;99.90;;;;;;5012259;28;20507;-86
2022/10/17 05:40:19;;;;;;;9.65;5.20;;;14.60;99.90;;;;;;4993759;28;20041;-89
2022/10/17 05:42:48;;;;;;;8.10;5.30;;;14.70;99.90;;;;;;5005537;28;20129;-87
2022/10/17 05:45:14;;;;;;;8.95;5.28;;;14.60;99.90;;;;;;5006149;28;20109;-87
2022/10/17 05:47:40;;;;;;;8.35;5.07;;;14.60;99.90;;;;;;5011610;28;20128;-87
2022/10/17 05:50:07;;;;;;;9.90;4.97;;;14.70;99.90;;;;;;5007918;28;20117;-87
2022/10/17 05:52:33;;;;;;;10.07;5.30;;;;;;;;;;5002702;28;20034;-86
2022/10/17 05:54:59;;;;;;;10.63;5.10;;;;;;;;;;5008436;28;20022;-87
2022/10/17 05:57:25;;;;;;;8.00;4.47;;;14.70;99.90;;;;;;5010092;28;20514;-84
2022/10/17 05:59:51;;;;;;;15.77;5.15;;;14.70;99.90;;;;;;5009154;28;20516;-87
2022/10/17 06:02:17;;;;;;;13.15;7.43;;;14.80;99.90;;;;;;5005804;28;20058;-84
2022/10/17 06:04:44;;;;;;;7.20;4.50;;;;;;;;;;5008536;28;20049;-86
2022/10/17 06:07:11;;;;;;;8.27;4.40;;;14.80;99.90;;;;;;5009268;28;20018;-86
2022/10/17 06:09:38;;;;;;;6.88;4.47;;;14.80;99.90;;;;;;5011382;28;20387;-85
2022/10/17 06:12:04;;;;;;;9.65;4.65;;;14.80;99.90;;;;;;5005667;28;20056;-88
2022/10/17 06:14:30;;;;;;;9.45;4.75;;;14.90;99.90;;;;;;5004013;28;20065;-86
2022/10/17 06:16:55;;;;;;;7.78;4.18;;;15.20;99.90;;;;;;5025056;28;20052;-86
2022/10/17 06:19:21;;;;;;;10.05;4.38;;;14.90;99.90;;;;;;5006544;28;20105;-87
2022/10/17 06:21:47;;;;;;;11.93;4.40;;;15.00;99.90;;;;;;5005278;28;20463;-88
2022/10/17 06:24:12;;;;;;;12.38;4.60;;;15.70;99.90;;;;;;5005622;28;20072;-85
2022/10/17 06:26:38;;;;;;;10.85;4.40;;;15.30;99.90;;;;;;5009450;28;20391;-88
2022/10/17 06:29:04;;;;;;;8.93;4.35;;;15.20;99.90;;;;;;5009511;28;20061;-87
2022/10/17 06:31:29;;;;;;;6.68;3.80;;;15.20;99.90;;;;;;5003506;28;20029;-87
2022/10/17 06:33:55;;;;;;;7.15;4.43;;;15.40;99.90;;;;;;5023970;28;20131;-88
2022/10/17 06:36:20;;;;;;;8.55;3.90;;;15.40;99.90;;;;;;5009796;28;20045;-86
2022/10/17 06:38:46;;;;;;;7.65;3.80;;;15.50;99.90;;;;;;5006994;28;20026;-84
2022/10/17 06:41:14;;;;;;;8.48;4.05;;;15.50;99.90;;;;;;5007112;28;20032;-83
2022/10/17 06:43:42;;;;;;;6.35;3.65;;;16.60;99.90;;;;;;5024392;28;20036;-88
2022/10/17 06:46:08;;;;;;;10.45;3.80;;;;;;;;;;5025762;28;20044;-88
2022/10/17 06:48:34;;;;;;;9.13;3.88;;;15.80;99.90;;;;;;5034228;28;20022;-83
2022/10/17 06:51:04;;;;;;;10.38;3.78;;;17.50;99.90;;;;;;5030515;28;20065;-87
2022/10/17 06:53:32;;;;;;;;;;;15.80;99.90;;;;;;4997490;28;20053;-89
2022/10/17 06:56:02;;;;;;;7.63;3.92;;;;;;;;;;4996750;28;19953;-88
2022/10/17 06:58:30;;;;;;;8.40;3.83;;;15.90;99.90;;;;;;5000102;28;20060;-87
2022/10/17 07:01:05;;;;;;;8.40;3.65;;;17.40;99.90;;;;;;5003454;28;20137;-86
2022/10/17 07:03:31;;;;;;;6.00;3.45;;;;;;;;;;5005829;28;20026;-84
2022/10/17 07:05:57;;;;;;;8.10;3.60;;;16.10;99.90;;;;;;5007945;28;20029;-86
2022/10/17 07:08:24;;;;;;;5.72;3.85;;;18.30;99.90;;;;;;5006010;28;20052;-86
2022/10/17 07:10:50;;;;;;;6.93;3.20;;;16.30;99.90;;;;;;5003321;28;20026;-86
2022/10/17 07:13:17;;;;;;;8.98;3.63;;;16.40;99.90;;;;;;5008836;28;20503;-86
2022/10/17 07:15:42;;;;;;;7.00;3.92;;;16.40;99.90;;;;;;5007878;28;20018;-87
2022/10/17 07:18:09;;;;;;;11.68;4.07;;;16.60;99.90;;;;;;5006228;28;20029;-86
2022/10/17 07:20:35;;;;;;;9.27;3.58;;;16.50;99.90;;;;;;5007640;28;20026;-88
2022/10/17 07:23:01;;;;;;;11.30;3.92;;;16.60;99.90;;;;;;5008056;28;20037;-86
2022/10/17 07:25:27;;;;;;;6.50;3.33;;;;;;;;;;5009342;28;20022;-87
2022/10/17 07:27:53;;;;;;;10.82;3.65;;;16.70;99.90;;;;;;5004395;28;20034;-85
2022/10/17 07:30:20;;;;;;;5.90;3.50;;;17.00;99.90;;;;;;5006995;28;20034;-86
2022/10/17 07:32:45;;;;;;;8.73;4.13;;;17.70;99.90;;;;;;5006515;28;20105;-90
2022/10/17 07:35:12;;;;;;;9.98;4.30;;;16.90;99.90;;;;;;5007118;28;20045;-88
2022/10/17 07:37:38;;;;;;;14.38;3.88;;;17.00;99.90;;;;;;5008357;28;20022;-88
2022/10/17 07:40:05;;;;;;;6.40;3.67;;;17.90;99.90;;;;;;5014652;28;20057;-87
2022/10/17 07:42:32;;;;;;;8.05;3.38;;;17.00;99.90;;;;;;5016396;28;20104;-87
2022/10/17 07:44:58;;;;;;;13.45;4.00;;;;;;;;;;5009842;28;20021;-84
2022/10/17 07:47:23;;;;;;;6.72;3.60;;;17.00;99.90;;;;;;5011320;28;20030;-86
2022/10/17 07:49:49;;;;;;;7.00;3.10;;;;;;;;;;5013202;28;20777;-89
2022/10/17 07:52:16;;;;;;;5.82;3.25;;;17.10;99.90;;;;;;5027633;28;20031;-88
2022/10/17 07:54:41;;;;;;;6.75;3.97;;;17.20;99.90;;;;;;5013386;28;20038;-86
2022/10/17 07:57:08;;;;;;;7.03;3.70;;;;;;;;;;5012616;28;20034;-86
2022/10/17 07:59:35;;;;;;;6.40;3.40;;;17.30;99.90;;;;;;5015576;28;20065;-82
2022/10/17 08:02:01;;;;;;;7.95;3.67;;;17.70;99.90;;;;;;5012170;28;20034;-86
2022/10/17 08:04:27;;;;;;;7.43;3.97;;;17.40;99.90;;;;;;5008179;28;20038;-86
2022/10/17 08:06:53;;;;;;;9.18;3.15;;;;;;;;;;5006559;28;20029;-85
2022/10/17 08:09:20;;;;;;;7.60;3.40;;;17.70;99.90;;;;;;5008456;28;20030;-88
2022/10/17 08:11:46;;;;;;;6.10;2.70;;;;;;;;;;5011531;28;20037;-90
2022/10/17 08:14:12;;;;;;;5.97;3.13;;;17.90;99.90;;;;;;5029982;28;20065;-86
2022/10/17 08:16:39;;;;;;;6.50;3.03;;;;;;;;;;5014207;28;20037;-89
2022/10/17 08:19:05;;;;;;;7.45;3.38;;;;;;;;;;5015683;28;20057;-86
2022/10/17 08:21:31;;;;;;;6.82;2.92;;;;;;;;;;5012766;28;20037;-86
2022/10/17 08:23:57;;;;;;;8.88;2.97;;;;;;;;;;5015496;28;20055;-86
2022/10/17 08:26:22;;;;;;;7.85;3.13;;;18.30;99.90;;;;;;5012282;28;20034;-87
2022/10/17 08:28:48;;;;;;;6.30;3.10;;;;;;;;;;5012207;28;20407;-87
2022/10/17 08:31:19;;;;;;;6.00;3.10;;;18.50;99.90;;;;;;5013604;28;20034;-88
2022/10/17 08:33:46;;;;;;;5.47;2.60;;;18.70;99.90;;;;;;5011902;28;20041;-88
2022/10/17 08:36:13;;;;;;;5.13;2.70;;;18.70;99.90;;;;;;5021650;28;20033;-85
2022/10/17 08:38:41;;;;;;;4.55;2.47;;;19.10;99.90;;;;;;5000879;28;20071;-87
2022/10/17 08:41:39;;;;;;;5.28;2.58;;;18.90;99.90;;;;;;5018536;28;20089;-87
2022/10/17 08:44:28;;;;;;;7.18;2.83;;;19.20;99.90;;;;;;5012031;28;20065;-85
2022/10/17 08:46:58;;;;;;;8.57;2.72;;;19.30;99.90;;;;;;5019009;28;20041;-86
2022/10/17 08:49:40;;;;;;;4.33;2.40;;;20.90;99.90;;;;;;5011629;28;20033;-87
2022/10/17 08:52:14;;;;;;;4.85;2.97;;;19.40;99.90;;;;;;5014925;28;20507;-87
2022/10/17 08:54:45;;;;;;;8.57;2.72;;;19.50;99.90;;;;;;5016677;28;20038;-87
2022/10/17 08:57:15;;;;;;;6.75;2.60;;;19.70;99.90;;;;;;5014731;28;20104;-85
2022/10/17 08:59:43;;;;;;;5.07;2.20;;;19.60;99.90;;;;;;5014070;28;20037;-88
2022/10/17 09:02:21;;;;;;;7.88;2.63;;;20.00;99.90;;;;;;5026577;28;20037;-84
2022/10/17 09:05:13;;;;;;;5.45;2.20;;;19.70;99.90;;;;;;5012597;28;20408;-87
2022/10/17 09:07:48;;;;;;;5.10;2.30;;;19.80;99.90;;;;;;5028046;28;20037;-87
2022/10/17 09:10:34;;;;;;;4.75;2.50;;;19.80;99.90;;;;;;5018000;28;20029;-86
2022/10/17 09:13:28;;;;;;;5.82;2.47;;;19.90;99.90;;;;;;5026279;28;20093;-84
2022/10/17 09:16:22;;;;;;;7.32;2.22;;;20.00;99.90;;;;;;5018946;28;20056;-86
2022/10/17 09:19:03;;;;;;;5.93;2.50;;;20.00;99.90;;;;;;5014081;28;20109;-85
2022/10/17 09:21:41;;;;;;;4.75;2.10;;;20.10;99.90;;;;;;5009985;28;20058;-86
2022/10/17 09:24:52;;;;;;;5.70;2.20;;;20.10;99.90;;;;;;5019433;28;20436;-83
2022/10/17 09:27:37;;;;;;;;;;;20.30;99.90;;;;;;4985401;28;20681;-85
2022/10/17 09:30:34;;;;;;;6.00;2.88;;;20.30;99.90;;;;;;5016845;28;19909;-87
2022/10/17 09:33:00;;;;;;;9.13;2.40;;;20.30;99.90;;;;;;5030230;28;20072;-85
2022/10/17 09:35:29;;;;;;;4.55;2.78;;;20.50;99.90;;;;;;5030508;28;20029;-85
2022/10/17 09:37:54;;;;;;;7.60;2.35;;;;;;;;;;5023968;28;20033;-85
2022/10/17 09:40:25;;;;;;;6.50;2.40;;;20.60;99.90;;;;;;5018261;28;20029;-87
2022/10/17 09:42:52;;;;;;;7.45;2.55;;;20.70;99.90;;;;;;5015402;28;20112;-85
2022/10/17 09:45:26;;;;;;;6.43;2.45;;;20.80;99.90;;;;;;5016245;28;20026;-88
2022/10/17 09:48:12;;;;;;;4.63;2.38;;;20.80;99.90;;;;;;5026329;28;20065;-88
2022/10/17 09:50:38;;;;;;;5.50;2.38;;;20.80;99.90;;;;;;5017136;28;20030;-87
2022/10/17 09:53:37;;;;;;;7.70;2.60;;;20.80;99.90;;;;;;5007578;28;20554;-87
2022/10/17 09:56:12;;;;;;;5.83;2.30;;;20.80;99.90;;;;;;5002658;28;20031;-83
2022/10/17 09:58:43;;;;;;;8.32;2.38;;;20.90;99.90;;;;;;5013210;28;20373;-90
2022/10/17 10:01:27;;;;;;;3.92;2.17;;;20.90;99.90;;;;;;5011612;28;20036;-87
2022/10/17 10:04:13;;;;;;;5.68;2.30;;;21.00;99.90;;;;;;5013698;28;20487;-87
2022/10/17 10:06:40;;;;;;;4.38;2.58;;;21.10;99.90;;;;;;5011321;28;20022;-89
2022/10/17 10:09:20;;;;;;;4.88;2.55;;;21.20;99.90;;;;;;5015664;28;20085;-88
2022/10/17 10:11:53;;;;;;;8.85;3.08;;;21.40;99.90;;;;;;5019792;28;20026;-87
2022/10/17 10:14:33;;;;;;;8.43;2.58;;;21.40;99.90;;;;;;5009346;28;20038;-84
2022/10/17 10:17:01;;;;;;;5.55;2.17;;;21.50;99.90;;;;;;5016427;28;20021;-86
2022/10/17 10:19:37;;;;;;;4.32;2.50;;;21.70;99.90;;;;;;5015996;28;20846;-86
2022/10/17 10:22:15;;;;;;;4.57;2.15;;;21.70;99.90;;;;;;5010264;28;20026;-87
2022/10/17 10:24:41;;;;;;;6.80;2.58;;;21.70;99.90;;;;;;5021298;28;20027;-87
2022/10/17 10:27:13;;;;;;;7.25;2.42;;;21.70;99.90;;;;;;5012555;28;20022;-88
2022/10/17 10:29:42;;;;;;;7.22;2.15;;;21.70;99.90;;;;;;5007941;28;20042;-87
2022/10/17 10:32:26;;;;;;;5.90;2.10;;;21.70;99.90;;;;;;5009559;28;20026;-87
2022/10/17 10:34:58;;;;;;;4.95;2.47;;;21.80;99.90;;;;;;5008333;28;20026;-87
2022/10/17 10:37:27;;;;;;;7.93;2.20;;;21.80;99.90;;;;;;5004182;28;20200;-86
2022/10/17 10:39:56;;;;;;;6.38;3.83;;;21.80;99.90;;;;;;5007002;28;20399;-87
2022/10/17 10:42:34;;;;;;;5.68;2.72;;;21.80;99.90;;;;;;5009741;28;20026;-84
2022/10/17 10:45:16;;;;;;;5.57;2.53;;;21.90;99.90;;;;;;5016085;28;20513;-84
2022/10/17 10:47:57;;;;;;;7.43;2.33;;;22.00;99.90;;;;;;5007975;28;20026;-87
2022/10/17 10:50:43;;;;;;;4.45;2.47;;;22.00;99.90;;;;;;5012657;28;20084;-85
2022/10/17 10:53:31;;;;;;;7.18;2.58;;;22.00;99.90;;;;;;5018051;28;20022;-88
2022/10/17 10:56:24;;;;;;;5.15;2.65;;;22.10;99.90;;;;;;5018334;28;20486;-86
2022/10/17 10:59:08;;;;;;;6.55;2.55;;;22.10;99.90;;;;;;5015382;28;20148;-85
2022/10/17 11:01:55;;;;;;;5.18;2.63;;;22.30;99.90;;;;;;5019158;28;20048;-86
2022/10/17 11:04:25;;;;;;;6.45;2.50;;;22.40;99.90;;;;;;5041617;28;20014;-86
2022/10/17 11:06:54;;;;;;;5.90;2.45;;;22.50;99.90;;;;;;5042843;28;20040;-85
2022/10/17 11:09:49;;;;;;;4.87;2.57;;;22.60;99.90;;;;;;5024154;28;20034;-85
2022/10/17 11:12:18;;;;;;;8.45;2.60;;;22.70;99.90;;;;;;5025924;28;20029;-85
2022/10/17 11:14:48;;;;;;;10.63;3.88;;;22.80;99.90;;;;;;5028613;28;20049;-87
2022/10/17 11:17:38;;;;;;;6.55;2.72;;;22.90;99.90;;;;;;5016357;28;20653;-84
2022/10/17 11:20:31;;;;;;;6.15;2.55;;;22.90;99.90;;;;;;5008763;28;20038;-88
2022/10/17 11:23:22;;;;;;;3.25;2.20;;;23.00;99.90;;;;;;5028152;28;20061;-87
2022/10/17 11:25:51;;;;;;;11.30;2.88;;;23.10;99.90;;;;;;5017970;28;20030;-86
2022/10/17 11:28:19;;;;;;;7.53;2.95;;;23.10;99.90;;;;;;5004181;28;20124;-88
2022/10/17 11:30:51;;;;;;;11.73;5.22;;;23.10;99.90;;;;;;5026474;28;20010;-85
2022/10/17 11:33:24;;;;;;;11.23;4.47;;;23.00;99.90;;;;;;5024969;28;20048;-83
2022/10/17 11:35:53;;;;;;;9.95;3.20;;;23.20;99.90;;;;;;5038598;28;20015;-85
2022/10/17 11:38:25;;;;;;;6.82;3.28;;;23.10;99.90;;;;;;5008112;28;20495;-84
2022/10/17 11:40:52;;;;;;;9.20;3.00;;;23.10;99.90;;;;;;5005595;28;20030;-87
2022/10/17 11:43:21;;;;;;;7.68;3.00;;;23.10;99.90;;;;;;5013882;28;20037;-85
2022/10/17 11:45:55;;;;;;;6.68;2.78;;;23.20;99.90;;;;;;5012948;28;20026;-85
2022/10/17 11:48:46;;;;;;;4.82;2.35;;;23.10;99.90;;;;;;5031162;28;20058;-84
2022/10/17 11:51:13;;;;;;;5.15;2.63;;;23.10;99.90;;;;;;5012463;28;20084;-87
2022/10/17 11:53:45;;;;;;;8.18;2.67;;;23.00;99.90;;;;;;5018896;28;20214;-86
2022/10/17 11:56:13;;;;;;;6.13;2.70;;;23.10;99.90;;;;;;5025817;28;20029;-82
2022/10/17 11:58:53;;;;;;;6.35;2.45;;;23.20;99.90;;;;;;5030725;28;20006;-87
2022/10/17 12:01:52;;;;;;;6.07;2.75;;;23.10;99.90;;;;;;5034982;28;20018;-85
2022/10/17 12:04:44;;;;;;;9.18;3.60;;;23.10;99.90;;;;;;5031272;28;20041;-86
2022/10/17 12:07:37;;;;;;;7.85;2.72;;;23.20;99.90;;;;;;5025498;28;20034;-84
2022/10/17 12:10:20;;;;;;;9.95;2.90;;;23.20;99.90;;;;;;5029839;28;20021;-84
2022/10/17 12:12:48;;;;;;;8.32;2.80;;;23.20;99.90;;;;;;5041224;28;20026;-86
2022/10/17 12:15:19;;;;;;;17.92;4.90;;;23.40;99.90;;;;;;5017889;28;20069;-86
2022/10/17 12:17:53;;;;;;;7.68;2.88;;;23.30;99.90;;;;;;5012017;28;20037;-86
2022/10/17 12:20:19;;;;;;;7.78;2.67;;;23.30;99.90;;;;;;5015599;28;20089;-85
2022/10/17 12:22:49;;;;;;;4.97;2.33;;;23.30;99.90;;;;;;5007627;28;20556;-84
2022/10/17 12:25:21;;;;;;;4.10;2.15;;;23.30;99.90;;;;;;5006699;28;20030;-85
2022/10/17 12:27:48;;;;;;;6.90;2.55;;;23.40;99.90;;;;;;5006631;28;20087;-86
2022/10/17 12:30:18;;;;;;;6.85;2.50;;;23.40;99.90;;;;;;5009612;28;20464;-85
2022/10/17 12:32:55;;;;;;;15.32;3.53;;;23.40;99.90;;;;;;5011555;28;20022;-87
2022/10/17 12:35:23;;;;;;;29.38;4.22;;;23.40;99.90;;;;;;5005526;28;20038;-83
2022/10/17 12:37:48;;;;;;;14.52;3.17;;;23.40;99.90;;;;;;5008238;28;20026;-87
2022/10/17 12:40:36;;;;;;;7.47;2.70;;;23.40;99.90;;;;;;5012465;28;20030;-86
2022/10/17 12:43:14;;;;;;;8.13;3.00;;;23.40;99.90;;;;;;5004638;28;20026;-85
2022/10/17 12:45:50;;;;;;;6.65;2.90;;;23.40;99.90;;;;;;5003381;28;20056;-85
2022/10/17 12:48:40;;;;;;;6.85;2.40;;;23.40;99.90;;;;;;5008692;28;20040;-86
2022/10/17 12:51:12;;;;;;;5.28;2.38;;;23.50;99.90;;;;;;5010850;28;20022;-86
2022/10/17 12:53:38;;;;;;;10.32;3.40;;;;;;;;;;5012358;28;20030;-84
2022/10/17 12:56:04;;;;;;;11.77;2.90;;;23.50;99.90;;;;;;5011154;28;20072;-85
2022/10/17 12:58:30;;;;;;;4.82;2.40;;;23.40;99.90;;;;;;5007642;28;20569;-84
2022/10/17 13:00:57;;;;;;;6.63;2.30;;;23.50;99.90;;;;;;5009718;28;20022;-85
2022/10/17 13:03:27;;;;;;;6.47;3.17;;;23.50;99.90;;;;;;5002579;28;20113;-85
2022/10/17 13:05:56;;;;;;;6.60;3.13;;;23.60;99.90;;;;;;5014988;28;20037;-87
2022/10/17 13:08:28;;;;;;;9.85;3.40;;;23.50;99.90;;;;;;5008577;28;20065;-87
2022/10/17 13:10:54;;;;;;;6.95;2.60;;;23.40;99.90;;;;;;5009524;28;20064;-86
2022/10/17 13:13:37;;;;;;;4.22;2.58;;;23.30;99.90;;;;;;5011399;28;20121;-85
2022/10/17 13:16:03;;;;;;;9.40;2.47;;;23.20;99.90;;;;;;5007726;28;20018;-86
2022/10/17 13:18:29;;;;;;;6.78;2.72;;;23.10;99.90;;;;;;5017819;28;20032;-85